createdAt,value
2019-06-27T00:00:12.579Z,99.40
2019-06-27T00:01:12.563Z,99.68
2019-06-27T00:02:12.546Z,99.30
2019-06-27T00:03:12.531Z,99.40
2019-06-27T00:04:12.512Z,99.58
2019-06-27T00:05:12.495Z,99.99
2019-06-27T00:06:12.478Z,99.99
2019-06-27T00:07:12.462Z,99.40
2019-06-27T00:08:12.445Z,99.78
2019-06-27T00:09:12.428Z,99.87
2019-06-27T00:10:12.411Z,99.87
2019-06-27T00:11:12.397Z,99.78
2019-06-27T00:12:12.377Z,99.99
2019-06-27T00:13:12.362Z,99.99
2019-06-27T00:14:12.345Z,99.99
2019-06-27T00:15:12.336Z,99.99
2019-06-27T00:16:12.313Z,99.99
2019-06-27T00:17:12.293Z,99.99
2019-06-27T00:18:12.326Z,99.99
2019-06-27T00:19:12.258Z,99.99
2019-06-27T00:20:12.249Z,99.99
2019-06-27T00:21:12.227Z,99.99
2019-06-27T00:22:12.208Z,99.99
2019-06-27T00:23:12.191Z,99.99
2019-06-27T00:24:12.173Z,99.99
2019-06-27T00:25:12.160Z,99.99
2019-06-27T00:26:12.140Z,99.99
2019-06-27T00:27:12.124Z,99.99
2019-06-27T00:28:12.103Z,99.99
2019-06-27T00:29:12.089Z,99.99
2019-06-27T00:30:12.074Z,99.99
2019-06-27T00:31:12.058Z,99.99
2019-06-27T00:32:12.037Z,99.99
2019-06-27T00:33:12.020Z,99.99
2019-06-27T00:34:12.004Z,99.99
2019-06-27T00:35:11.989Z,99.99
2019-06-27T00:36:11.968Z,99.99
2019-06-27T00:37:11.952Z,99.99
2019-06-27T00:38:11.936Z,99.99
2019-06-27T00:39:11.920Z,99.99
2019-06-27T00:40:11.903Z,99.99
2019-06-27T00:41:11.884Z,99.99
2019-06-27T00:42:11.869Z,99.99
2019-06-27T00:43:11.850Z,99.99
2019-06-27T00:44:11.833Z,99.99
2019-06-27T00:45:11.815Z,99.99
2019-06-27T00:46:11.798Z,99.99
2019-06-27T00:47:11.782Z,99.99
2019-06-27T00:48:11.764Z,99.99
2019-06-27T00:49:11.747Z,99.99
2019-06-27T00:50:11.738Z,99.99
2019-06-27T00:51:11.717Z,99.99
2019-06-27T00:52:11.696Z,99.99
2019-06-27T00:53:11.678Z,99.99
2019-06-27T00:54:11.661Z,99.99
2019-06-27T00:55:11.644Z,99.99
2019-06-27T00:56:11.626Z,99.99
2019-06-27T00:57:14.561Z,99.99
2019-06-27T00:58:11.594Z,99.99
2019-06-27T00:59:11.574Z,99.99
2019-06-27T01:00:11.556Z,99.99
2019-06-27T01:01:11.539Z,99.99
2019-06-27T01:02:11.527Z,99.99
2019-06-27T01:03:11.506Z,99.99
2019-06-27T01:04:11.492Z,99.99
2019-06-27T01:05:11.470Z,99.99
2019-06-27T01:06:11.455Z,99.99
2019-06-27T01:07:11.435Z,99.99
2019-06-27T01:08:11.418Z,99.99
2019-06-27T01:09:11.401Z,99.99
2019-06-27T01:10:11.384Z,99.99
2019-06-27T01:11:11.366Z,99.99
2019-06-27T01:12:11.349Z,99.99
2019-06-27T01:13:11.331Z,99.99
2019-06-27T01:14:11.317Z,99.99
2019-06-27T01:15:11.298Z,99.99
2019-06-27T01:16:11.279Z,99.99
2019-06-27T01:17:11.262Z,99.99
2019-06-27T01:18:11.244Z,99.99
2019-06-27T01:19:11.228Z,99.99
2019-06-27T01:20:11.216Z,99.99
2019-06-27T01:21:11.194Z,99.99
2019-06-27T01:22:11.182Z,99.99
2019-06-27T01:23:11.157Z,99.99
2019-06-27T01:24:11.138Z,99.99
2019-06-27T01:25:11.122Z,99.99
2019-06-27T01:26:11.104Z,99.99
2019-06-27T01:27:11.086Z,99.99
2019-06-27T01:28:11.070Z,99.99
2019-06-27T01:29:11.051Z,99.99
2019-06-27T01:30:11.036Z,99.99
2019-06-27T01:31:11.019Z,99.99
2019-06-27T01:32:11.000Z,99.99
2019-06-27T01:33:10.982Z,99.99
2019-06-27T01:34:10.967Z,99.99
2019-06-27T01:35:10.948Z,99.99
2019-06-27T01:36:10.932Z,99.99
2019-06-27T01:37:10.913Z,99.99
2019-06-27T01:38:10.896Z,99.99
2019-06-27T01:39:10.924Z,99.99
2019-06-27T01:40:10.860Z,99.99
2019-06-27T01:41:10.841Z,99.99
2019-06-27T01:42:10.823Z,99.99
2019-06-27T01:43:10.809Z,99.99
2019-06-27T01:44:10.790Z,99.99
2019-06-27T01:45:10.771Z,99.99
2019-06-27T01:46:10.756Z,99.99
2019-06-27T01:47:10.736Z,99.99
2019-06-27T01:48:10.720Z,99.99
2019-06-27T01:49:10.702Z,99.99
2019-06-27T01:50:10.683Z,99.99
2019-06-27T01:51:10.674Z,99.99
2019-06-27T01:52:10.649Z,99.99
2019-06-27T01:53:10.629Z,99.99
2019-06-27T01:54:10.613Z,99.99
2019-06-27T01:55:10.597Z,99.99
2019-06-27T01:56:10.581Z,99.99
2019-06-27T01:57:10.561Z,99.99
2019-06-27T01:58:10.543Z,99.99
2019-06-27T01:59:10.526Z,99.99
2019-06-27T02:00:10.506Z,99.99
2019-06-27T02:01:10.494Z,99.99
2019-06-27T02:02:10.474Z,99.99
2019-06-27T02:03:10.454Z,99.99
2019-06-27T02:04:10.442Z,99.99
2019-06-27T02:05:10.420Z,99.99
2019-06-27T02:06:10.402Z,99.99
2019-06-27T02:07:10.387Z,99.99
2019-06-27T02:08:10.364Z,99.99
2019-06-27T02:09:10.349Z,99.99
2019-06-27T02:10:10.330Z,99.99
2019-06-27T02:11:10.318Z,99.99
2019-06-27T02:12:10.296Z,99.99
2019-06-27T02:13:10.280Z,99.99
2019-06-27T02:14:10.262Z,99.99
2019-06-27T02:15:10.243Z,99.99
2019-06-27T02:16:10.225Z,99.99
2019-06-27T02:17:10.206Z,99.99
2019-06-27T02:18:10.191Z,99.99
2019-06-27T02:19:10.173Z,99.99
2019-06-27T02:20:10.194Z,99.99
2019-06-27T02:21:10.136Z,99.99
2019-06-27T02:22:10.118Z,99.99
2019-06-27T02:23:10.102Z,99.99
2019-06-27T02:24:10.085Z,99.99
2019-06-27T02:25:10.070Z,99.99
2019-06-27T02:26:10.050Z,99.99
2019-06-27T02:27:10.031Z,99.99
2019-06-27T02:28:10.010Z,99.99
2019-06-27T02:29:10.001Z,99.99
2019-06-27T02:30:09.985Z,99.99
2019-06-27T02:31:09.982Z,99.99
2019-06-27T02:32:09.945Z,99.99
2019-06-27T02:33:09.927Z,99.99
2019-06-27T02:34:09.907Z,99.99
2019-06-27T02:35:09.890Z,99.99
2019-06-27T02:36:09.875Z,99.99
2019-06-27T02:37:09.854Z,99.99
2019-06-27T02:38:09.942Z,99.99
2019-06-27T02:39:09.821Z,99.99
2019-06-27T02:40:09.800Z,99.99
2019-06-27T02:41:09.786Z,99.99
2019-06-27T02:42:09.767Z,99.99
2019-06-27T02:43:09.755Z,99.99
2019-06-27T02:44:09.731Z,99.99
2019-06-27T02:45:09.721Z,99.99
2019-06-27T02:46:09.695Z,99.99
2019-06-27T02:47:09.678Z,99.99
2019-06-27T02:48:09.660Z,99.99
2019-06-27T02:49:09.647Z,99.99
2019-06-27T02:50:09.628Z,99.99
2019-06-27T02:51:09.608Z,99.99
2019-06-27T02:52:09.588Z,99.99
2019-06-27T02:53:09.573Z,99.99
2019-06-27T02:54:09.558Z,99.99
2019-06-27T02:55:09.537Z,99.99
2019-06-27T02:56:09.521Z,99.99
2019-06-27T02:57:09.505Z,99.99
2019-06-27T02:58:28.458Z,99.99
2019-06-27T02:59:09.470Z,99.99
2019-06-27T03:00:09.447Z,99.99
2019-06-27T03:01:09.431Z,99.99
2019-06-27T03:02:09.415Z,99.99
2019-06-27T03:03:09.403Z,99.99
2019-06-27T03:04:09.379Z,99.99
2019-06-27T03:05:09.362Z,99.99
2019-06-27T03:06:09.345Z,99.99
2019-06-27T03:07:09.330Z,99.99
2019-06-27T03:08:09.307Z,99.99
2019-06-27T03:09:09.306Z,99.99
2019-06-27T03:10:09.279Z,99.99
2019-06-27T03:11:09.255Z,99.99
2019-06-27T03:12:09.238Z,99.99
2019-06-27T03:13:09.223Z,99.99
2019-06-27T03:14:09.204Z,99.99
2019-06-27T03:15:09.199Z,99.99
2019-06-27T03:16:09.164Z,99.99
2019-06-27T03:17:09.161Z,99.99
2019-06-27T03:18:09.129Z,99.99
2019-06-27T03:19:09.124Z,99.99
2019-06-27T03:20:09.111Z,99.99
2019-06-27T03:21:09.086Z,99.99
2019-06-27T03:22:09.067Z,99.99
2019-06-27T03:23:09.066Z,99.99
2019-06-27T03:24:09.034Z,99.99
2019-06-27T03:25:09.007Z,99.99
2019-06-27T03:26:09.003Z,99.99
2019-06-27T03:27:08.971Z,99.99
2019-06-27T03:28:08.961Z,99.99
2019-06-27T03:29:08.935Z,99.99
2019-06-27T03:30:08.974Z,99.99
2019-06-27T03:31:08.908Z,99.99
2019-06-27T03:32:08.889Z,99.99
2019-06-27T03:33:08.869Z,99.99
2019-06-27T03:34:08.851Z,99.99
2019-06-27T03:35:08.830Z,99.99
2019-06-27T03:36:08.820Z,99.99
2019-06-27T03:37:08.796Z,99.99
2019-06-27T03:38:08.778Z,99.99
2019-06-27T03:39:08.759Z,99.99
2019-06-27T03:40:08.751Z,99.99
2019-06-27T03:41:08.723Z,99.99
2019-06-27T03:42:08.710Z,99.99
2019-06-27T03:43:08.689Z,99.99
2019-06-27T03:44:08.667Z,99.99
2019-06-27T03:45:08.653Z,99.99
2019-06-27T03:46:08.635Z,99.99
2019-06-27T03:47:08.617Z,99.99
2019-06-27T03:48:08.624Z,99.99
2019-06-27T03:49:08.584Z,99.99
2019-06-27T03:50:08.563Z,99.99
2019-06-27T03:51:08.545Z,99.99
2019-06-27T03:52:08.527Z,99.99
2019-06-27T03:53:08.509Z,99.99
2019-06-27T03:54:08.491Z,99.99
2019-06-27T03:55:08.481Z,99.99
2019-06-27T03:56:08.465Z,99.99
2019-06-27T03:57:08.439Z,99.99
2019-06-27T03:58:08.421Z,99.99
2019-06-27T03:59:13.188Z,99.99
2019-06-27T04:00:08.390Z,99.99
2019-06-27T04:01:08.378Z,99.99
2019-06-27T04:02:08.351Z,99.99
2019-06-27T04:03:08.335Z,99.99
2019-06-27T04:04:08.315Z,99.99
2019-06-27T04:05:08.302Z,99.99
2019-06-27T04:06:08.289Z,99.99
2019-06-27T04:07:08.266Z,99.99
2019-06-27T04:08:08.245Z,99.99
2019-06-27T04:09:08.226Z,99.99
2019-06-27T04:10:08.211Z,99.99
2019-06-27T04:11:08.193Z,99.99
2019-06-27T04:12:08.174Z,99.99
2019-06-27T04:13:08.174Z,99.99
2019-06-27T04:14:08.140Z,99.99
2019-06-27T04:15:08.144Z,99.99
2019-06-27T04:16:08.116Z,99.99
2019-06-27T04:17:08.100Z,99.99
2019-06-27T04:18:08.069Z,99.99
2019-06-27T04:19:08.054Z,99.99
2019-06-27T04:20:08.035Z,99.99
2019-06-27T04:21:08.018Z,99.99
2019-06-27T04:22:08.000Z,99.99
2019-06-27T04:23:07.989Z,99.99
2019-06-27T04:24:07.963Z,99.99
2019-06-27T04:25:07.949Z,99.99
2019-06-27T04:26:07.927Z,99.99
2019-06-27T04:27:07.914Z,99.99
2019-06-27T04:28:07.895Z,99.99
2019-06-27T04:29:07.881Z,99.99
2019-06-27T04:30:07.857Z,99.99
2019-06-27T04:31:07.840Z,99.99
2019-06-27T04:32:07.827Z,99.99
2019-06-27T04:33:07.804Z,99.99
2019-06-27T04:34:07.789Z,99.99
2019-06-27T04:35:07.769Z,99.99
2019-06-27T04:36:07.749Z,99.99
2019-06-27T04:37:07.736Z,99.99
2019-06-27T04:38:07.715Z,99.99
2019-06-27T04:39:07.700Z,99.99
2019-06-27T04:40:07.687Z,99.99
2019-06-27T04:41:07.661Z,99.99
2019-06-27T04:42:07.653Z,99.99
2019-06-27T04:43:07.645Z,99.99
2019-06-27T04:44:07.616Z,99.99
2019-06-27T04:45:07.594Z,99.99
2019-06-27T04:46:07.576Z,99.99
2019-06-27T04:47:07.559Z,99.99
2019-06-27T04:48:07.541Z,99.99
2019-06-27T04:49:12.883Z,99.99
2019-06-27T04:50:07.531Z,99.99
2019-06-27T04:51:07.504Z,99.99
2019-06-27T04:52:07.475Z,99.99
2019-06-27T04:53:07.466Z,99.99
2019-06-27T04:54:07.435Z,99.99
2019-06-27T04:55:07.429Z,99.99
2019-06-27T04:56:07.405Z,99.99
2019-06-27T04:57:07.385Z,99.99
2019-06-27T04:58:07.377Z,99.99
2019-06-27T04:59:07.348Z,99.99
2019-06-27T05:00:07.330Z,99.99
2019-06-27T05:01:07.323Z,99.99
2019-06-27T05:02:07.295Z,99.99
2019-06-27T05:03:07.283Z,99.99
2019-06-27T05:04:07.260Z,99.99
2019-06-27T05:05:07.248Z,99.99
2019-06-27T05:06:07.227Z,99.99
2019-06-27T05:07:07.209Z,99.99
2019-06-27T05:08:07.200Z,99.99
2019-06-27T05:09:07.173Z,99.99
2019-06-27T05:10:07.159Z,99.99
2019-06-27T05:11:07.143Z,99.99
2019-06-27T05:12:07.127Z,99.99
2019-06-27T05:13:07.119Z,99.99
2019-06-27T05:14:07.089Z,99.99
2019-06-27T05:15:07.071Z,99.87
2019-06-27T05:16:07.053Z,99.99
2019-06-27T05:17:07.037Z,99.58
2019-06-27T05:18:07.018Z,99.39
2019-06-27T05:19:07.003Z,99.99
2019-06-27T05:20:06.982Z,98.96
2019-06-27T05:21:06.964Z,98.19
2019-06-27T05:22:06.949Z,98.10
2019-06-27T05:23:06.937Z,97.42
2019-06-27T05:24:06.916Z,96.85
2019-06-27T05:25:06.901Z,96.85
2019-06-27T05:26:06.882Z,96.66
2019-06-27T05:27:06.866Z,96.85
2019-06-27T05:28:06.849Z,97.14
2019-06-27T05:29:06.830Z,96.94
2019-06-27T05:30:09.817Z,96.85
2019-06-27T05:31:06.797Z,96.85
2019-06-27T05:32:06.779Z,96.66
2019-06-27T05:33:06.762Z,97.04
2019-06-27T05:34:06.748Z,98.10
2019-06-27T05:35:06.731Z,98.48
2019-06-27T05:36:06.710Z,96.75
2019-06-27T05:37:06.694Z,96.08
2019-06-27T05:38:06.678Z,96.37
2019-06-27T05:39:06.660Z,95.70
2019-06-27T05:40:06.643Z,96.18
2019-06-27T05:41:06.626Z,96.18
2019-06-27T05:42:06.610Z,96.66
2019-06-27T05:43:06.595Z,96.37
2019-06-27T05:44:06.573Z,95.41
2019-06-27T05:45:06.561Z,96.47
2019-06-27T05:46:06.547Z,95.79
2019-06-27T05:47:06.527Z,95.98
2019-06-27T05:48:06.509Z,96.37
2019-06-27T05:49:06.491Z,95.98
2019-06-27T05:50:06.477Z,95.41
2019-06-27T05:51:06.461Z,94.93
2019-06-27T05:52:06.444Z,94.35
2019-06-27T05:53:06.427Z,95.50
2019-06-27T05:54:06.410Z,95.21
2019-06-27T05:55:06.392Z,95.79
2019-06-27T05:56:06.371Z,94.93
2019-06-27T05:57:06.357Z,94.93
2019-06-27T05:58:06.349Z,94.26
2019-06-27T05:59:06.327Z,94.83
2019-06-27T06:00:06.321Z,94.35
2019-06-27T06:01:06.294Z,95.12
2019-06-27T06:02:06.275Z,95.70
2019-06-27T06:03:06.257Z,94.74
2019-06-27T06:04:06.242Z,94.54
2019-06-27T06:05:06.277Z,94.35
2019-06-27T06:06:06.206Z,94.93
2019-06-27T06:07:06.196Z,95.41
2019-06-27T06:08:06.172Z,95.41
2019-06-27T06:09:06.156Z,95.60
2019-06-27T06:10:06.141Z,94.74
2019-06-27T06:11:06.127Z,94.26
2019-06-27T06:12:06.105Z,95.98
2019-06-27T06:13:06.088Z,94.07
2019-06-27T06:14:06.071Z,94.45
2019-06-27T06:15:06.062Z,94.64
2019-06-27T06:16:06.040Z,93.59
2019-06-27T06:17:06.023Z,92.72
2019-06-27T06:18:06.008Z,93.49
2019-06-27T06:19:05.991Z,93.77
2019-06-27T06:20:05.973Z,93.73
2019-06-27T06:21:05.955Z,93.15
2019-06-27T06:22:05.940Z,91.61
2019-06-27T06:23:05.925Z,90.12
2019-06-27T06:24:05.908Z,90.22
2019-06-27T06:25:05.917Z,89.93
2019-06-27T06:26:05.889Z,89.64
2019-06-27T06:27:05.860Z,89.45
2019-06-27T06:28:05.845Z,89.93
2019-06-27T06:29:05.830Z,91.23
2019-06-27T06:30:05.814Z,90.75
2019-06-27T06:31:05.801Z,89.69
2019-06-27T06:32:05.785Z,90.27
2019-06-27T06:33:05.769Z,90.66
2019-06-27T06:34:05.752Z,90.56
2019-06-27T06:35:05.738Z,90.08
2019-06-27T06:36:05.721Z,90.17
2019-06-27T06:37:08.018Z,91.33
2019-06-27T06:38:05.692Z,90.08
2019-06-27T06:39:05.675Z,89.89
2019-06-27T06:40:05.660Z,90.75
2019-06-27T06:41:05.645Z,90.94
2019-06-27T06:42:05.631Z,89.98
2019-06-27T06:43:05.644Z,89.83
2019-06-27T06:44:05.598Z,90.12
2019-06-27T06:45:05.583Z,89.93
2019-06-27T06:46:05.569Z,90.03
2019-06-27T06:47:05.555Z,90.12
2019-06-27T06:48:05.541Z,88.30
2019-06-27T06:49:05.524Z,87.05
2019-06-27T06:50:05.508Z,88.30
2019-06-27T06:51:05.499Z,89.64
2019-06-27T06:52:05.479Z,89.16
2019-06-27T06:53:05.466Z,88.10
2019-06-27T06:54:05.460Z,88.68
2019-06-27T06:55:05.435Z,88.73
2019-06-27T06:56:05.416Z,87.96
2019-06-27T06:57:05.418Z,86.42
2019-06-27T06:58:05.398Z,86.52
2019-06-27T06:59:05.383Z,86.22
2019-06-27T07:00:05.368Z,87.38
2019-06-27T07:01:05.378Z,85.84
2019-06-27T07:02:05.339Z,84.59
2019-06-27T07:03:05.333Z,85.98
2019-06-27T07:04:05.317Z,85.02
2019-06-27T07:05:05.306Z,84.44
2019-06-27T07:06:05.296Z,83.77
2019-06-27T07:07:05.356Z,83.00
2019-06-27T07:08:05.272Z,83.67
2019-06-27T07:09:05.260Z,85.11
2019-06-27T07:10:05.242Z,85.50
2019-06-27T07:11:05.238Z,83.91
2019-06-27T07:12:05.229Z,84.00
2019-06-27T07:13:05.214Z,83.14
2019-06-27T07:14:05.498Z,82.50
2019-06-27T07:15:05.191Z,82.12
2019-06-27T07:16:05.284Z,80.29
2019-06-27T07:17:05.170Z,80.96
2019-06-27T07:18:05.164Z,79.90
2019-06-27T07:19:05.175Z,80.06
2019-06-27T07:20:05.149Z,81.60
2019-06-27T07:21:05.141Z,80.87
2019-06-27T07:22:05.165Z,80.15
2019-06-27T07:23:05.112Z,79.33
2019-06-27T07:24:05.119Z,79.38
2019-06-27T07:25:05.106Z,80.35
2019-06-27T07:26:05.103Z,80.73
2019-06-27T07:27:05.088Z,80.73
2019-06-27T07:28:05.089Z,78.61
2019-06-27T07:29:05.060Z,79.48
2019-06-27T07:30:05.057Z,79.48
2019-06-27T07:31:17.219Z,79.92
2019-06-27T07:32:05.028Z,80.92
2019-06-27T07:33:05.040Z,79.10
2019-06-27T07:34:05.008Z,79.38
2019-06-27T07:35:05.012Z,78.27
2019-06-27T07:36:05.003Z,78.56
2019-06-27T07:37:04.991Z,78.75
2019-06-27T07:38:04.969Z,78.75
2019-06-27T07:39:04.963Z,76.92
2019-06-27T07:40:04.961Z,77.31
2019-06-27T07:41:04.933Z,77.44
2019-06-27T07:42:04.925Z,76.18
2019-06-27T07:43:04.920Z,76.82
2019-06-27T07:44:04.928Z,76.48
2019-06-27T07:45:04.895Z,76.28
2019-06-27T07:46:04.892Z,75.90
2019-06-27T07:47:04.869Z,74.16
2019-06-27T07:48:04.864Z,75.80
2019-06-27T07:49:04.851Z,75.42
2019-06-27T07:50:04.820Z,76.38
2019-06-27T07:51:04.823Z,78.02
2019-06-27T07:52:04.801Z,77.67
2019-06-27T07:53:04.803Z,76.23
2019-06-27T07:54:04.790Z,74.78
2019-06-27T07:55:04.773Z,75.13
2019-06-27T07:56:04.745Z,75.23
2019-06-27T07:57:04.721Z,75.99
2019-06-27T07:58:04.697Z,75.99
2019-06-27T07:59:04.697Z,75.32
2019-06-27T08:00:04.726Z,75.03
2019-06-27T08:01:04.700Z,74.16
2019-06-27T08:02:04.657Z,74.74
2019-06-27T08:03:04.646Z,75.61
2019-06-27T08:04:04.632Z,75.90
2019-06-27T08:05:04.626Z,76.67
2019-06-27T08:06:04.595Z,75.26
2019-06-27T08:07:04.566Z,74.36
2019-06-27T08:08:04.654Z,74.16
2019-06-27T08:09:04.571Z,74.49
2019-06-27T08:10:04.575Z,74.30
2019-06-27T08:11:04.538Z,75.55
2019-06-27T08:12:04.539Z,74.58
2019-06-27T08:13:04.481Z,71.41
2019-06-27T08:14:04.522Z,73.53
2019-06-27T08:15:04.478Z,73.05
2019-06-27T08:16:04.435Z,73.33
2019-06-27T08:17:04.421Z,74.40
2019-06-27T08:18:04.416Z,73.37
2019-06-27T08:19:04.405Z,74.33
2019-06-27T08:20:04.383Z,73.47
2019-06-27T08:21:04.372Z,73.57
2019-06-27T08:22:04.349Z,72.41
2019-06-27T08:23:04.416Z,71.83
2019-06-27T08:24:04.480Z,72.79
2019-06-27T08:25:04.313Z,75.10
2019-06-27T08:26:04.618Z,73.37
2019-06-27T08:27:04.458Z,72.41
2019-06-27T08:28:04.267Z,71.54
2019-06-27T08:29:04.250Z,70.48
2019-06-27T08:30:08.049Z,69.90
2019-06-27T08:31:04.220Z,69.90
2019-06-27T08:32:04.214Z,70.44
2019-06-27T08:33:04.192Z,71.25
2019-06-27T08:34:04.212Z,72.41
2019-06-27T08:35:04.161Z,72.21
2019-06-27T08:36:04.153Z,71.15
2019-06-27T08:37:04.138Z,70.67
2019-06-27T08:38:04.120Z,70.90
2019-06-27T08:39:04.105Z,69.64
2019-06-27T08:40:04.089Z,69.64
2019-06-27T08:41:04.086Z,68.26
2019-06-27T08:42:04.058Z,69.84
2019-06-27T08:43:04.095Z,70.61
2019-06-27T08:44:04.038Z,69.35
2019-06-27T08:45:04.032Z,70.32
2019-06-27T08:46:04.092Z,67.14
2019-06-27T08:47:03.983Z,66.94
2019-06-27T08:48:03.989Z,67.97
2019-06-27T08:49:03.963Z,69.51
2019-06-27T08:50:03.941Z,69.61
2019-06-27T08:51:03.937Z,69.42
2019-06-27T08:52:03.914Z,68.65
2019-06-27T08:53:03.897Z,67.88
2019-06-27T08:54:03.879Z,67.71
2019-06-27T08:55:03.892Z,67.81
2019-06-27T08:56:03.850Z,67.23
2019-06-27T08:57:03.871Z,67.33
2019-06-27T08:58:03.881Z,67.23
2019-06-27T08:59:03.808Z,68.77
2019-06-27T09:00:03.796Z,68.23
2019-06-27T09:01:03.784Z,68.91
2019-06-27T09:02:08.740Z,68.81
2019-06-27T09:03:03.756Z,68.13
2019-06-27T09:04:03.757Z,67.55
2019-06-27T09:05:03.732Z,69.68
2019-06-27T09:06:03.744Z,66.78
2019-06-27T09:07:03.757Z,68.01
2019-06-27T09:08:03.692Z,68.65
2019-06-27T09:09:03.677Z,69.51
2019-06-27T09:10:03.670Z,69.42
2019-06-27T09:11:03.694Z,68.49
2019-06-27T09:12:03.628Z,67.81
2019-06-27T09:13:03.620Z,66.27
2019-06-27T09:14:03.599Z,65.01
2019-06-27T09:15:03.583Z,65.98
2019-06-27T09:16:03.587Z,67.14
2019-06-27T09:17:03.575Z,65.69
2019-06-27T09:18:03.539Z,64.24
2019-06-27T09:19:03.528Z,64.15
2019-06-27T09:20:03.523Z,64.56
2019-06-27T09:21:03.499Z,65.14
2019-06-27T09:22:03.488Z,64.86
2019-06-27T09:23:03.470Z,64.95
2019-06-27T09:24:03.458Z,65.05
2019-06-27T09:25:03.485Z,65.05
2019-06-27T09:26:03.445Z,65.08
2019-06-27T09:27:03.427Z,64.95
2019-06-27T09:28:03.425Z,63.70
2019-06-27T09:29:03.390Z,63.24
2019-06-27T09:30:03.387Z,62.08
2019-06-27T09:31:03.367Z,61.51
2019-06-27T09:32:03.353Z,63.73
2019-06-27T09:33:03.333Z,63.40
2019-06-27T09:34:03.342Z,63.60
2019-06-27T09:35:03.338Z,63.79
2019-06-27T09:36:03.282Z,62.34
2019-06-27T09:37:03.280Z,62.73
2019-06-27T09:38:03.278Z,62.05
2019-06-27T09:39:03.243Z,61.47
2019-06-27T09:40:03.238Z,62.44
2019-06-27T09:41:03.234Z,63.21
2019-06-27T09:42:03.603Z,63.31
2019-06-27T09:43:03.185Z,62.57
2019-06-27T09:44:03.173Z,59.83
2019-06-27T09:45:03.177Z,61.31
2019-06-27T09:46:03.149Z,61.41
2019-06-27T09:47:03.153Z,61.51
2019-06-27T09:48:03.112Z,60.54
2019-06-27T09:49:03.109Z,60.57
2019-06-27T09:50:03.945Z,57.87
2019-06-27T09:51:03.075Z,58.51
2019-06-27T09:52:03.091Z,60.38
2019-06-27T09:53:03.072Z,60.16
2019-06-27T09:54:03.030Z,60.18
2019-06-27T09:55:03.045Z,59.99
2019-06-27T09:56:03.037Z,58.06
2019-06-27T09:57:03.022Z,58.06
2019-06-27T09:58:03.014Z,56.90
2019-06-27T09:59:02.995Z,56.61
2019-06-27T10:00:02.956Z,57.29
2019-06-27T10:01:05.860Z,58.15
2019-06-27T10:02:02.951Z,58.54
2019-06-27T10:03:02.918Z,58.73
2019-06-27T10:04:02.906Z,55.35
2019-06-27T10:05:02.924Z,52.84
2019-06-27T10:06:02.900Z,52.26
2019-06-27T10:07:02.867Z,52.55
2019-06-27T10:08:02.881Z,53.71
2019-06-27T10:09:02.830Z,53.61
2019-06-27T10:10:02.834Z,55.90
2019-06-27T10:11:02.814Z,56.00
2019-06-27T10:12:02.806Z,56.39
2019-06-27T10:13:02.771Z,56.96
2019-06-27T10:14:02.766Z,58.03
2019-06-27T10:15:02.780Z,55.65
2019-06-27T10:16:02.732Z,55.35
2019-06-27T10:17:02.716Z,55.93
2019-06-27T10:18:02.756Z,55.35
2019-06-27T10:19:02.729Z,55.45
2019-06-27T10:20:02.696Z,55.93
2019-06-27T10:21:02.659Z,55.55
2019-06-27T10:22:02.651Z,56.71
2019-06-27T10:23:02.644Z,56.05
2019-06-27T10:24:02.686Z,56.80
2019-06-27T10:25:02.615Z,58.15
2019-06-27T10:26:02.619Z,57.67
2019-06-27T10:27:02.593Z,57.03
2019-06-27T10:28:02.573Z,55.87
2019-06-27T10:29:02.629Z,57.79
2019-06-27T10:30:02.691Z,58.67
2019-06-27T10:31:02.535Z,54.41
2019-06-27T10:32:02.512Z,53.55
2019-06-27T10:33:02.507Z,53.55
2019-06-27T10:34:02.494Z,54.80
2019-06-27T10:35:02.471Z,55.19
2019-06-27T10:36:02.468Z,56.73
2019-06-27T10:37:02.442Z,57.34
2019-06-27T10:38:02.438Z,58.80
2019-06-27T10:39:02.424Z,57.82
2019-06-27T10:40:02.411Z,57.82
2019-06-27T10:41:02.399Z,57.46
2019-06-27T10:42:02.391Z,56.76
2019-06-27T10:43:02.368Z,56.67
2019-06-27T10:44:02.354Z,56.60
2019-06-27T10:45:02.349Z,57.28
2019-06-27T10:46:02.349Z,56.60
2019-06-27T10:47:02.329Z,58.34
2019-06-27T10:48:02.305Z,55.92
2019-06-27T10:49:02.437Z,55.15
2019-06-27T10:50:02.282Z,54.88
2019-06-27T10:51:02.747Z,55.27
2019-06-27T10:52:02.261Z,57.59
2019-06-27T10:53:02.251Z,54.39
2019-06-27T10:54:02.277Z,52.08
2019-06-27T10:55:02.220Z,53.43
2019-06-27T10:56:02.206Z,53.43
2019-06-27T10:57:02.187Z,53.91
2019-06-27T10:58:02.194Z,55.76
2019-06-27T10:59:02.195Z,55.76
2019-06-27T11:00:02.221Z,54.79
2019-06-27T11:01:02.153Z,55.17
2019-06-27T11:02:02.130Z,55.76
2019-06-27T11:03:15.020Z,54.39
2019-06-27T11:04:02.116Z,54.30
2019-06-27T11:05:02.083Z,53.53
2019-06-27T11:06:02.082Z,53.63
2019-06-27T11:07:02.077Z,54.39
2019-06-27T11:08:02.068Z,54.21
2019-06-27T11:09:02.115Z,54.39
2019-06-27T11:10:02.063Z,56.62
2019-06-27T11:11:02.044Z,56.62
2019-06-27T11:12:02.170Z,55.36
2019-06-27T11:13:01.996Z,53.81
2019-06-27T11:14:01.995Z,55.17
2019-06-27T11:15:01.971Z,55.88
2019-06-27T11:16:01.981Z,57.04
2019-06-27T11:17:01.980Z,53.45
2019-06-27T11:18:01.930Z,55.58
2019-06-27T11:19:01.909Z,54.81
2019-06-27T11:20:01.919Z,51.32
2019-06-27T11:21:01.899Z,52.78
2019-06-27T11:22:01.897Z,53.85
2019-06-27T11:23:01.901Z,53.85
2019-06-27T11:24:01.841Z,54.30
2019-06-27T11:25:02.126Z,52.95
2019-06-27T11:26:01.812Z,53.72
2019-06-27T11:27:01.803Z,53.65
2019-06-27T11:28:01.787Z,54.43
2019-06-27T11:29:01.785Z,53.75
2019-06-27T11:30:01.820Z,53.65
2019-06-27T11:31:01.781Z,54.52
2019-06-27T11:32:01.750Z,52.78
2019-06-27T11:33:01.724Z,51.42
2019-06-27T11:34:01.728Z,51.04
2019-06-27T11:35:01.813Z,51.52
2019-06-27T11:36:01.690Z,53.67
2019-06-27T11:37:01.675Z,51.13
2019-06-27T11:38:01.668Z,49.68
2019-06-27T11:39:01.656Z,49.19
2019-06-27T11:40:01.786Z,49.19
2019-06-27T11:41:01.630Z,51.23
2019-06-27T11:42:01.650Z,51.72
2019-06-27T11:43:01.666Z,52.87
2019-06-27T11:44:01.588Z,52.97
2019-06-27T11:45:01.576Z,52.68
2019-06-27T11:46:01.615Z,52.80
2019-06-27T11:47:01.555Z,51.64
2019-06-27T11:48:01.541Z,49.61
2019-06-27T11:49:01.519Z,51.32
2019-06-27T11:50:01.512Z,52.00
2019-06-27T11:51:01.529Z,53.36
2019-06-27T11:52:01.511Z,49.77
2019-06-27T11:53:01.489Z,51.45
2019-06-27T11:54:01.494Z,48.74
2019-06-27T11:55:01.543Z,49.12
2019-06-27T11:56:01.462Z,48.83
2019-06-27T11:57:01.435Z,49.51
2019-06-27T11:58:01.420Z,51.45
2019-06-27T11:59:01.405Z,52.32
2019-06-27T12:00:01.484Z,51.09
2019-06-27T12:01:01.384Z,49.15
2019-06-27T12:02:01.368Z,49.75
2019-06-27T12:03:01.458Z,48.59
2019-06-27T12:04:01.350Z,49.17
2019-06-27T12:05:01.377Z,48.00
2019-06-27T12:06:01.334Z,47.91
2019-06-27T12:07:01.309Z,48.10
2019-06-27T12:08:01.290Z,48.10
2019-06-27T12:09:01.281Z,47.52
2019-06-27T12:10:01.296Z,48.39
2019-06-27T12:11:01.266Z,48.20
2019-06-27T12:12:01.260Z,48.59
2019-06-27T12:13:01.259Z,47.33
2019-06-27T12:14:01.228Z,46.55
2019-06-27T12:15:01.329Z,47.13
2019-06-27T12:16:01.202Z,48.10
2019-06-27T12:17:01.185Z,46.26
2019-06-27T12:18:01.170Z,46.26
2019-06-27T12:19:01.162Z,46.84
2019-06-27T12:20:01.170Z,46.77
2019-06-27T12:21:01.136Z,48.52
2019-06-27T12:22:01.186Z,48.25
2019-06-27T12:23:01.120Z,46.79
2019-06-27T12:24:01.127Z,46.98
2019-06-27T12:25:01.096Z,45.17
2019-06-27T12:26:01.073Z,44.29
2019-06-27T12:27:01.138Z,47.18
2019-06-27T12:28:01.068Z,45.34
2019-06-27T12:29:01.043Z,44.56
2019-06-27T12:30:01.026Z,46.04
2019-06-27T12:31:01.044Z,45.43
2019-06-27T12:32:01.015Z,44.75
2019-06-27T12:33:00.998Z,44.65
2019-06-27T12:34:06.749Z,46.91
2019-06-27T12:35:01.032Z,47.01
2019-06-27T12:36:00.999Z,45.36
2019-06-27T12:37:00.973Z,45.87
2019-06-27T12:38:00.954Z,45.09
2019-06-27T12:39:00.952Z,44.02
2019-06-27T12:40:00.937Z,44.21
2019-06-27T12:41:00.921Z,43.75
2019-06-27T12:42:00.922Z,43.07
2019-06-27T12:43:00.911Z,43.63
2019-06-27T12:44:00.890Z,44.02
2019-06-27T12:45:00.887Z,44.21
2019-06-27T12:46:00.884Z,42.85
2019-06-27T12:47:00.837Z,42.19
2019-06-27T12:48:06.607Z,43.26
2019-06-27T12:49:00.830Z,41.80
2019-06-27T12:50:02.756Z,40.93
2019-06-27T12:51:00.810Z,42.31
2019-06-27T12:52:00.813Z,40.09